sensor_id;sensor_type;location;lat;lon;timestamp;P1;durP1;ratioP1;P2;durP2;ratioP2
9898;SDS011;4988;49.238;6.698;2022-10-16T00:01:08;1.47;;;1.37;;
9898;SDS011;4988;49.238;6.698;2022-10-16T00:03:36;2.10;;;1.40;;
9898;SDS011;4988;49.238;6.698;2022-10-16T00:06:02;8.13;;;1.60;;
9898;SDS011;4988;49.238;6.698;2022-10-16T00:08:28;2.93;;;1.60;;
9898;SDS011;4988;49.238;6.698;2022-10-16T00:11:01;4.20;;;1.70;;
9898;SDS011;4988;49.238;6.698;2022-10-16T00:13:32;2.10;;;1.63;;
9898;SDS011;4988;49.238;6.698;2022-10-16T00:15:58;3.03;;;1.87;;
9898;SDS011;4988;49.238;6.698;2022-10-16T00:18:25;4.80;;;1.90;;
9898;SDS011;4988;49.238;6.698;2022-10-16T00:20:51;5.73;;;2.10;;
9898;SDS011;4988;49.238;6.698;2022-10-16T00:23:17;3.37;;;1.87;;
9898;SDS011;4988;49.238;6.698;2022-10-16T00:25:42;5.60;;;1.70;;
9898;SDS011;4988;49.238;6.698;2022-10-16T00:28:07;3.60;;;1.70;;
9898;SDS011;4988;49.238;6.698;2022-10-16T00:30:33;5.00;;;2.00;;
9898;SDS011;4988;49.238;6.698;2022-10-16T00:32:58;2.63;;;1.80;;
9898;SDS011;4988;49.238;6.698;2022-10-16T00:35:23;2.50;;;1.80;;
9898;SDS011;4988;49.238;6.698;2022-10-16T00:37:49;3.43;;;1.70;;
9898;SDS011;4988;49.238;6.698;2022-10-16T00:40:14;3.37;;;1.60;;
9898;SDS011;4988;49.238;6.698;2022-10-16T00:42:40;3.57;;;1.57;;
9898;SDS011;4988;49.238;6.698;2022-10-16T00:45:05;2.83;;;1.70;;
9898;SDS011;4988;49.238;6.698;2022-10-16T00:47:39;2.87;;;1.30;;
9898;SDS011;4988;49.238;6.698;2022-10-16T00:50:08;3.63;;;1.23;;
9898;SDS011;4988;49.238;6.698;2022-10-16T00:52:39;2.83;;;1.40;;
9898;SDS011;4988;49.238;6.698;2022-10-16T00:55:09;1.73;;;1.30;;
9898;SDS011;4988;49.238;6.698;2022-10-16T00:57:35;5.27;;;1.60;;
9898;SDS011;4988;49.238;6.698;2022-10-16T01:00:03;2.80;;;1.40;;
9898;SDS011;4988;49.238;6.698;2022-10-16T01:02:30;3.17;;;1.40;;
9898;SDS011;4988;49.238;6.698;2022-10-16T01:04:56;2.50;;;1.50;;
9898;SDS011;4988;49.238;6.698;2022-10-16T01:15:47;3.63;;;1.87;;
9898;SDS011;4988;49.238;6.698;2022-10-16T01:18:29;4.17;;;2.20;;
9898;SDS011;4988;49.238;6.698;2022-10-16T01:21:01;3.50;;;2.10;;
9898;SDS011;4988;49.238;6.698;2022-10-16T01:23:48;5.17;;;2.10;;
9898;SDS011;4988;49.238;6.698;2022-10-16T01:26:28;3.50;;;2.13;;
9898;SDS011;4988;49.238;6.698;2022-10-16T01:32:01;3.53;;;2.30;;
9898;SDS011;4988;49.238;6.698;2022-10-16T01:34:36;3.67;;;2.30;;
9898;SDS011;4988;49.238;6.698;2022-10-16T01:37:07;3.30;;;2.60;;
9898;SDS011;4988;49.238;6.698;2022-10-16T01:39:38;5.33;;;2.50;;
9898;SDS011;4988;49.238;6.698;2022-10-16T01:42:17;6.60;;;2.43;;
9898;SDS011;4988;49.238;6.698;2022-10-16T01:44:46;3.70;;;1.90;;
9898;SDS011;4988;49.238;6.698;2022-10-16T01:47:13;2.20;;;1.90;;
9898;SDS011;4988;49.238;6.698;2022-10-16T01:49:40;2.70;;;2.00;;
9898;SDS011;4988;49.238;6.698;2022-10-16T01:52:09;3.83;;;1.93;;
9898;SDS011;4988;49.238;6.698;2022-10-16T01:54:40;3.30;;;2.10;;
9898;SDS011;4988;49.238;6.698;2022-10-16T01:57:08;3.83;;;1.80;;
9898;SDS011;4988;49.238;6.698;2022-10-16T01:59:37;13.93;;;3.40;;
9898;SDS011;4988;49.238;6.698;2022-10-16T02:02:08;3.03;;;1.90;;
9898;SDS011;4988;49.238;6.698;2022-10-16T02:04:38;4.57;;;1.93;;
9898;SDS011;4988;49.238;6.698;2022-10-16T02:07:07;5.47;;;2.00;;
9898;SDS011;4988;49.238;6.698;2022-10-16T02:09:33;4.07;;;1.80;;
9898;SDS011;4988;49.238;6.698;2022-10-16T02:12:00;4.50;;;2.30;;
9898;SDS011;4988;49.238;6.698;2022-10-16T02:14:31;4.80;;;1.90;;
9898;SDS011;4988;49.238;6.698;2022-10-16T02:16:57;4.47;;;1.87;;
9898;SDS011;4988;49.238;6.698;2022-10-16T02:19:23;3.37;;;2.13;;
9898;SDS011;4988;49.238;6.698;2022-10-16T02:21:54;2.87;;;1.70;;
9898;SDS011;4988;49.238;6.698;2022-10-16T02:26:56;6.90;;;2.10;;
9898;SDS011;4988;49.238;6.698;2022-10-16T02:29:28;5.33;;;3.20;;
9898;SDS011;4988;49.238;6.698;2022-10-16T02:31:55;7.50;;;4.37;;
9898;SDS011;4988;49.238;6.698;2022-10-16T02:34:25;8.63;;;4.53;;
9898;SDS011;4988;49.238;6.698;2022-10-16T02:36:52;6.77;;;3.97;;
9898;SDS011;4988;49.238;6.698;2022-10-16T02:39:18;7.57;;;3.53;;
9898;SDS011;4988;49.238;6.698;2022-10-16T02:41:45;6.57;;;3.47;;
9898;SDS011;4988;49.238;6.698;2022-10-16T02:44:10;6.23;;;3.53;;
9898;SDS011;4988;49.238;6.698;2022-10-16T02:46:35;15.27;;;3.33;;
9898;SDS011;4988;49.238;6.698;2022-10-16T02:49:01;11.23;;;3.80;;
9898;SDS011;4988;49.238;6.698;2022-10-16T02:51:26;8.03;;;3.50;;
9898;SDS011;4988;49.238;6.698;2022-10-16T02:53:51;8.17;;;4.07;;
9898;SDS011;4988;49.238;6.698;2022-10-16T02:56:17;7.30;;;4.50;;
9898;SDS011;4988;49.238;6.698;2022-10-16T02:58:42;7.50;;;4.70;;
9898;SDS011;4988;49.238;6.698;2022-10-16T03:01:07;5.83;;;4.00;;
9898;SDS011;4988;49.238;6.698;2022-10-16T03:03:33;6.70;;;3.93;;
9898;SDS011;4988;49.238;6.698;2022-10-16T03:05:58;7.60;;;4.57;;
9898;SDS011;4988;49.238;6.698;2022-10-16T03:08:23;9.17;;;4.10;;
9898;SDS011;4988;49.238;6.698;2022-10-16T03:10:50;6.27;;;3.90;;
9898;SDS011;4988;49.238;6.698;2022-10-16T03:13:16;6.00;;;2.80;;
9898;SDS011;4988;49.238;6.698;2022-10-16T03:15:41;3.90;;;2.60;;
9898;SDS011;4988;49.238;6.698;2022-10-16T03:18:06;6.03;;;2.80;;
9898;SDS011;4988;49.238;6.698;2022-10-16T03:20:31;3.83;;;2.03;;
9898;SDS011;4988;49.238;6.698;2022-10-16T03:22:58;2.93;;;1.93;;
9898;SDS011;4988;49.238;6.698;2022-10-16T03:25:23;6.73;;;2.10;;
9898;SDS011;4988;49.238;6.698;2022-10-16T03:27:48;2.97;;;1.53;;
9898;SDS011;4988;49.238;6.698;2022-10-16T03:30:14;3.37;;;1.73;;
9898;SDS011;4988;49.238;6.698;2022-10-16T03:32:39;2.67;;;1.63;;
9898;SDS011;4988;49.238;6.698;2022-10-16T03:35:04;4.13;;;1.73;;
9898;SDS011;4988;49.238;6.698;2022-10-16T03:37:30;2.17;;;1.63;;
9898;SDS011;4988;49.238;6.698;2022-10-16T03:39:55;2.40;;;1.40;;
9898;SDS011;4988;49.238;6.698;2022-10-16T03:42:21;3.43;;;1.50;;
9898;SDS011;4988;49.238;6.698;2022-10-16T03:44:46;6.20;;;1.30;;
9898;SDS011;4988;49.238;6.698;2022-10-16T03:47:12;2.30;;;1.50;;
9898;SDS011;4988;49.238;6.698;2022-10-16T03:49:37;2.47;;;1.50;;
9898;SDS011;4988;49.238;6.698;2022-10-16T03:52:02;1.97;;;1.30;;
9898;SDS011;4988;49.238;6.698;2022-10-16T03:54:27;2.27;;;1.43;;
9898;SDS011;4988;49.238;6.698;2022-10-16T03:56:53;2.10;;;1.40;;
9898;SDS011;4988;49.238;6.698;2022-10-16T03:59:18;3.50;;;1.57;;
9898;SDS011;4988;49.238;6.698;2022-10-16T04:01:43;2.13;;;1.60;;
9898;SDS011;4988;49.238;6.698;2022-10-16T04:04:09;4.40;;;1.70;;
9898;SDS011;4988;49.238;6.698;2022-10-16T04:06:34;5.57;;;1.60;;
9898;SDS011;4988;49.238;6.698;2022-10-16T04:08:59;4.33;;;1.77;;
9898;SDS011;4988;49.238;6.698;2022-10-16T04:11:25;5.47;;;1.63;;
9898;SDS011;4988;49.238;6.698;2022-10-16T04:13:50;4.80;;;1.93;;
9898;SDS011;4988;49.238;6.698;2022-10-16T04:16:15;4.43;;;1.70;;
9898;SDS011;4988;49.238;6.698;2022-10-16T04:18:41;2.83;;;1.90;;
9898;SDS011;4988;49.238;6.698;2022-10-16T04:21:06;3.20;;;1.40;;
9898;SDS011;4988;49.238;6.698;2022-10-16T04:23:32;9.90;;;1.70;;
9898;SDS011;4988;49.238;6.698;2022-10-16T04:25:58;5.70;;;1.57;;
9898;SDS011;4988;49.238;6.698;2022-10-16T04:28:24;6.43;;;1.70;;
9898;SDS011;4988;49.238;6.698;2022-10-16T04:30:50;1.83;;;1.63;;
9898;SDS011;4988;49.238;6.698;2022-10-16T04:33:15;5.90;;;1.70;;
9898;SDS011;4988;49.238;6.698;2022-10-16T04:35:40;4.90;;;1.30;;
9898;SDS011;4988;49.238;6.698;2022-10-16T04:38:06;3.63;;;1.70;;
9898;SDS011;4988;49.238;6.698;2022-10-16T04:40:31;2.00;;;1.50;;
9898;SDS011;4988;49.238;6.698;2022-10-16T04:42:58;3.33;;;1.30;;
9898;SDS011;4988;49.238;6.698;2022-10-16T04:45:23;5.30;;;1.90;;
9898;SDS011;4988;49.238;6.698;2022-10-16T04:47:49;2.30;;;1.80;;
9898;SDS011;4988;49.238;6.698;2022-10-16T04:50:14;2.73;;;2.00;;
9898;SDS011;4988;49.238;6.698;2022-10-16T04:52:39;4.50;;;2.30;;
9898;SDS011;4988;49.238;6.698;2022-10-16T04:55:05;4.03;;;2.57;;
9898;SDS011;4988;49.238;6.698;2022-10-16T04:57:31;3.53;;;2.80;;
9898;SDS011;4988;49.238;6.698;2022-10-16T04:59:58;6.73;;;2.80;;
9898;SDS011;4988;49.238;6.698;2022-10-16T05:02:23;3.23;;;2.57;;
9898;SDS011;4988;49.238;6.698;2022-10-16T05:04:49;8.47;;;2.90;;
9898;SDS011;4988;49.238;6.698;2022-10-16T05:07:14;5.70;;;3.13;;
9898;SDS011;4988;49.238;6.698;2022-10-16T05:09:40;3.77;;;2.50;;
9898;SDS011;4988;49.238;6.698;2022-10-16T05:12:05;6.77;;;3.33;;
9898;SDS011;4988;49.238;6.698;2022-10-16T05:14:31;6.73;;;3.37;;
9898;SDS011;4988;49.238;6.698;2022-10-16T05:16:56;5.00;;;3.23;;
9898;SDS011;4988;49.238;6.698;2022-10-16T05:19:21;5.67;;;3.40;;
9898;SDS011;4988;49.238;6.698;2022-10-16T05:21:47;4.07;;;2.73;;
9898;SDS011;4988;49.238;6.698;2022-10-16T05:24:12;7.03;;;2.93;;
9898;SDS011;4988;49.238;6.698;2022-10-16T05:26:37;6.43;;;3.53;;
9898;SDS011;4988;49.238;6.698;2022-10-16T05:29:03;8.50;;;4.73;;
9898;SDS011;4988;49.238;6.698;2022-10-16T05:31:28;6.23;;;4.23;;
9898;SDS011;4988;49.238;6.698;2022-10-16T05:34:00;4.70;;;3.60;;
9898;SDS011;4988;49.238;6.698;2022-10-16T05:36:26;5.23;;;3.67;;
9898;SDS011;4988;49.238;6.698;2022-10-16T05:38:51;6.73;;;4.30;;
9898;SDS011;4988;49.238;6.698;2022-10-16T05:41:17;8.43;;;4.40;;
9898;SDS011;4988;49.238;6.698;2022-10-16T05:43:46;6.13;;;3.80;;
9898;SDS011;4988;49.238;6.698;2022-10-16T05:46:14;5.27;;;3.97;;
9898;SDS011;4988;49.238;6.698;2022-10-16T05:48:40;6.57;;;3.87;;
9898;SDS011;4988;49.238;6.698;2022-10-16T05:51:07;5.83;;;3.60;;
9898;SDS011;4988;49.238;6.698;2022-10-16T05:53:36;9.90;;;4.10;;
9898;SDS011;4988;49.238;6.698;2022-10-16T05:56:03;5.87;;;3.80;;
9898;SDS011;4988;49.238;6.698;2022-10-16T05:58:30;5.17;;;3.87;;
9898;SDS011;4988;49.238;6.698;2022-10-16T06:01:01;7.17;;;3.77;;
9898;SDS011;4988;49.238;6.698;2022-10-16T06:03:28;6.80;;;4.10;;
9898;SDS011;4988;49.238;6.698;2022-10-16T06:05:54;5.37;;;4.40;;
9898;SDS011;4988;49.238;6.698;2022-10-16T06:08:20;7.47;;;4.20;;
9898;SDS011;4988;49.238;6.698;2022-10-16T06:10:47;8.83;;;4.43;;
9898;SDS011;4988;49.238;6.698;2022-10-16T06:13:12;7.27;;;4.20;;
9898;SDS011;4988;49.238;6.698;2022-10-16T06:15:41;8.67;;;4.60;;
9898;SDS011;4988;49.238;6.698;2022-10-16T06:18:07;10.73;;;4.50;;
9898;SDS011;4988;49.238;6.698;2022-10-16T06:20:36;7.43;;;4.50;;
9898;SDS011;4988;49.238;6.698;2022-10-16T06:23:02;13.00;;;4.77;;
9898;SDS011;4988;49.238;6.698;2022-10-16T06:25:29;14.13;;;5.47;;
9898;SDS011;4988;49.238;6.698;2022-10-16T06:27:55;9.50;;;5.90;;
9898;SDS011;4988;49.238;6.698;2022-10-16T06:30:20;12.77;;;5.90;;
9898;SDS011;4988;49.238;6.698;2022-10-16T06:32:46;10.67;;;4.00;;
9898;SDS011;4988;49.238;6.698;2022-10-16T06:35:11;4.80;;;3.50;;
9898;SDS011;4988;49.238;6.698;2022-10-16T06:37:36;5.03;;;3.07;;
9898;SDS011;4988;49.238;6.698;2022-10-16T06:40:01;7.23;;;2.93;;
9898;SDS011;4988;49.238;6.698;2022-10-16T06:42:29;6.43;;;3.73;;
9898;SDS011;4988;49.238;6.698;2022-10-16T06:44:54;9.57;;;3.97;;
9898;SDS011;4988;49.238;6.698;2022-10-16T06:47:20;11.80;;;3.77;;
9898;SDS011;4988;49.238;6.698;2022-10-16T06:49:45;5.97;;;3.63;;
9898;SDS011;4988;49.238;6.698;2022-10-16T06:52:10;7.10;;;3.57;;
9898;SDS011;4988;49.238;6.698;2022-10-16T06:54:36;5.30;;;3.20;;
9898;SDS011;4988;49.238;6.698;2022-10-16T06:57:01;6.37;;;3.43;;
9898;SDS011;4988;49.238;6.698;2022-10-16T06:59:26;6.97;;;3.40;;
9898;SDS011;4988;49.238;6.698;2022-10-16T07:01:52;6.17;;;3.30;;
9898;SDS011;4988;49.238;6.698;2022-10-16T07:04:17;7.40;;;3.57;;
9898;SDS011;4988;49.238;6.698;2022-10-16T07:06:42;5.17;;;3.20;;
9898;SDS011;4988;49.238;6.698;2022-10-16T07:09:09;6.03;;;3.20;;
9898;SDS011;4988;49.238;6.698;2022-10-16T07:11:36;7.00;;;3.73;;
9898;SDS011;4988;49.238;6.698;2022-10-16T07:14:02;9.40;;;4.50;;
9898;SDS011;4988;49.238;6.698;2022-10-16T07:16:29;7.07;;;4.13;;
9898;SDS011;4988;49.238;6.698;2022-10-16T07:18:59;7.23;;;4.30;;
9898;SDS011;4988;49.238;6.698;2022-10-16T07:21:29;6.00;;;3.23;;
9898;SDS011;4988;49.238;6.698;2022-10-16T07:24:00;6.30;;;2.90;;
9898;SDS011;4988;49.238;6.698;2022-10-16T07:26:26;4.23;;;3.20;;
9898;SDS011;4988;49.238;6.698;2022-10-16T07:28:53;6.73;;;4.57;;
9898;SDS011;4988;49.238;6.698;2022-10-16T07:31:19;6.60;;;3.70;;
9898;SDS011;4988;49.238;6.698;2022-10-16T07:33:45;9.20;;;3.90;;
9898;SDS011;4988;49.238;6.698;2022-10-16T07:36:13;14.27;;;8.20;;
9898;SDS011;4988;49.238;6.698;2022-10-16T07:38:39;9.03;;;5.07;;
9898;SDS011;4988;49.238;6.698;2022-10-16T07:41:05;20.33;;;10.60;;
9898;SDS011;4988;49.238;6.698;2022-10-16T07:43:32;15.40;;;8.43;;
9898;SDS011;4988;49.238;6.698;2022-10-16T07:45:58;15.20;;;8.90;;
9898;SDS011;4988;49.238;6.698;2022-10-16T07:48:26;9.90;;;5.20;;
9898;SDS011;4988;49.238;6.698;2022-10-16T07:50:57;5.67;;;3.50;;
9898;SDS011;4988;49.238;6.698;2022-10-16T07:53:24;8.83;;;4.07;;
9898;SDS011;4988;49.238;6.698;2022-10-16T07:55:49;6.87;;;4.20;;
9898;SDS011;4988;49.238;6.698;2022-10-16T07:58:15;5.67;;;3.73;;
9898;SDS011;4988;49.238;6.698;2022-10-16T08:00:40;5.17;;;3.20;;
9898;SDS011;4988;49.238;6.698;2022-10-16T08:03:05;4.43;;;3.47;;
9898;SDS011;4988;49.238;6.698;2022-10-16T08:05:31;6.50;;;3.50;;
9898;SDS011;4988;49.238;6.698;2022-10-16T08:07:57;7.10;;;3.80;;
9898;SDS011;4988;49.238;6.698;2022-10-16T08:10:24;6.43;;;3.40;;
9898;SDS011;4988;49.238;6.698;2022-10-16T08:12:53;4.83;;;3.00;;
9898;SDS011;4988;49.238;6.698;2022-10-16T08:15:20;9.00;;;3.60;;
9898;SDS011;4988;49.238;6.698;2022-10-16T08:17:58;8.57;;;3.43;;
9898;SDS011;4988;49.238;6.698;2022-10-16T08:20:25;5.90;;;3.60;;
9898;SDS011;4988;49.238;6.698;2022-10-16T08:22:54;7.57;;;5.27;;
9898;SDS011;4988;49.238;6.698;2022-10-16T08:25:21;21.43;;;9.67;;
9898;SDS011;4988;49.238;6.698;2022-10-16T08:27:47;28.10;;;13.53;;
9898;SDS011;4988;49.238;6.698;2022-10-16T08:30:12;25.60;;;13.40;;
9898;SDS011;4988;49.238;6.698;2022-10-16T08:32:38;17.80;;;8.57;;
9898;SDS011;4988;49.238;6.698;2022-10-16T08:35:04;16.60;;;8.37;;
9898;SDS011;4988;49.238;6.698;2022-10-16T08:37:30;21.13;;;7.40;;
9898;SDS011;4988;49.238;6.698;2022-10-16T08:39:56;7.40;;;5.10;;
9898;SDS011;4988;49.238;6.698;2022-10-16T08:42:26;8.63;;;5.37;;
9898;SDS011;4988;49.238;6.698;2022-10-16T08:48:14;7.13;;;4.60;;
9898;SDS011;4988;49.238;6.698;2022-10-16T08:50:42;9.03;;;4.47;;
9898;SDS011;4988;49.238;6.698;2022-10-16T08:53:09;8.63;;;4.70;;
9898;SDS011;4988;49.238;6.698;2022-10-16T08:55:41;7.70;;;4.40;;
9898;SDS011;4988;49.238;6.698;2022-10-16T08:58:10;10.00;;;4.87;;
9898;SDS011;4988;49.238;6.698;2022-10-16T09:00:38;16.70;;;6.10;;
9898;SDS011;4988;49.238;6.698;2022-10-16T09:03:11;9.07;;;4.87;;
9898;SDS011;4988;49.238;6.698;2022-10-16T09:11:30;5.17;;;3.57;;
9898;SDS011;4988;49.238;6.698;2022-10-16T09:14:17;7.37;;;3.50;;
9898;SDS011;4988;49.238;6.698;2022-10-16T09:17:03;6.37;;;3.27;;
9898;SDS011;4988;49.238;6.698;2022-10-16T09:23:18;8.80;;;3.43;;
9898;SDS011;4988;49.238;6.698;2022-10-16T09:25:50;8.60;;;3.50;;
9898;SDS011;4988;49.238;6.698;2022-10-16T09:28:17;6.10;;;3.33;;
9898;SDS011;4988;49.238;6.698;2022-10-16T09:30:43;9.97;;;4.07;;
9898;SDS011;4988;49.238;6.698;2022-10-16T09:33:10;9.67;;;3.20;;
9898;SDS011;4988;49.238;6.698;2022-10-16T09:35:38;6.80;;;3.27;;
9898;SDS011;4988;49.238;6.698;2022-10-16T09:38:07;8.87;;;3.40;;
9898;SDS011;4988;49.238;6.698;2022-10-16T09:40:34;7.80;;;3.13;;
9898;SDS011;4988;49.238;6.698;2022-10-16T09:45:41;4.00;;;2.70;;
9898;SDS011;4988;49.238;6.698;2022-10-16T09:48:11;5.10;;;3.00;;
9898;SDS011;4988;49.238;6.698;2022-10-16T09:50:38;4.90;;;2.70;;
9898;SDS011;4988;49.238;6.698;2022-10-16T09:53:14;5.27;;;2.63;;
9898;SDS011;4988;49.238;6.698;2022-10-16T09:55:49;7.30;;;2.63;;
9898;SDS011;4988;49.238;6.698;2022-10-16T09:58:15;6.57;;;3.57;;
9898;SDS011;4988;49.238;6.698;2022-10-16T10:00:41;7.30;;;3.50;;
9898;SDS011;4988;49.238;6.698;2022-10-16T10:03:15;6.30;;;2.80;;
9898;SDS011;4988;49.238;6.698;2022-10-16T10:06:05;5.63;;;2.73;;
9898;SDS011;4988;49.238;6.698;2022-10-16T10:08:41;7.73;;;3.03;;
9898;SDS011;4988;49.238;6.698;2022-10-16T10:11:40;8.20;;;2.80;;
9898;SDS011;4988;49.238;6.698;2022-10-16T10:16:46;7.37;;;3.27;;
9898;SDS011;4988;49.238;6.698;2022-10-16T10:19:14;8.17;;;3.20;;
9898;SDS011;4988;49.238;6.698;2022-10-16T10:21:51;3.70;;;2.50;;
9898;SDS011;4988;49.238;6.698;2022-10-16T10:24:18;6.60;;;2.80;;
9898;SDS011;4988;49.238;6.698;2022-10-16T10:26:47;4.63;;;2.77;;
9898;SDS011;4988;49.238;6.698;2022-10-16T10:29:21;6.77;;;2.90;;
9898;SDS011;4988;49.238;6.698;2022-10-16T10:34:49;7.43;;;2.80;;
9898;SDS011;4988;49.238;6.698;2022-10-16T10:40:30;4.07;;;2.77;;
9898;SDS011;4988;49.238;6.698;2022-10-16T10:43:01;5.47;;;3.07;;
9898;SDS011;4988;49.238;6.698;2022-10-16T10:45:38;6.87;;;2.90;;
9898;SDS011;4988;49.238;6.698;2022-10-16T10:50:52;6.13;;;3.50;;
9898;SDS011;4988;49.238;6.698;2022-10-16T10:59:16;7.73;;;3.37;;
9898;SDS011;4988;49.238;6.698;2022-10-16T11:07:58;5.50;;;3.80;;
9898;SDS011;4988;49.238;6.698;2022-10-16T11:10:28;6.50;;;3.13;;
9898;SDS011;4988;49.238;6.698;2022-10-16T11:13:04;10.07;;;3.63;;
9898;SDS011;4988;49.238;6.698;2022-10-16T11:15:44;10.57;;;3.50;;
9898;SDS011;4988;49.238;6.698;2022-10-16T11:18:20;5.60;;;3.10;;
9898;SDS011;4988;49.238;6.698;2022-10-16T11:20:53;6.47;;;3.70;;
9898;SDS011;4988;49.238;6.698;2022-10-16T11:26:21;6.37;;;3.83;;
9898;SDS011;4988;49.238;6.698;2022-10-16T11:28:51;5.33;;;3.20;;
9898;SDS011;4988;49.238;6.698;2022-10-16T11:31:34;8.47;;;3.90;;
9898;SDS011;4988;49.238;6.698;2022-10-16T11:34:08;5.37;;;3.60;;
9898;SDS011;4988;49.238;6.698;2022-10-16T11:39:19;6.80;;;3.83;;
9898;SDS011;4988;49.238;6.698;2022-10-16T11:49:32;10.30;;;3.83;;
9898;SDS011;4988;49.238;6.698;2022-10-16T11:54:42;6.07;;;3.90;;
9898;SDS011;4988;49.238;6.698;2022-10-16T11:57:14;5.87;;;3.70;;
9898;SDS011;4988;49.238;6.698;2022-10-16T12:02:50;6.93;;;3.40;;
9898;SDS011;4988;49.238;6.698;2022-10-16T12:05:23;7.23;;;3.53;;
9898;SDS011;4988;49.238;6.698;2022-10-16T12:10:35;6.47;;;3.10;;
9898;SDS011;4988;49.238;6.698;2022-10-16T12:13:03;7.07;;;3.27;;
9898;SDS011;4988;49.238;6.698;2022-10-16T12:15:31;11.80;;;3.73;;
9898;SDS011;4988;49.238;6.698;2022-10-16T12:18:02;7.33;;;3.40;;
9898;SDS011;4988;49.238;6.698;2022-10-16T12:20:31;7.27;;;3.60;;
9898;SDS011;4988;49.238;6.698;2022-10-16T12:23:06;4.07;;;2.70;;
9898;SDS011;4988;49.238;6.698;2022-10-16T12:25:53;6.23;;;3.10;;
9898;SDS011;4988;49.238;6.698;2022-10-16T12:28:21;6.70;;;2.90;;
9898;SDS011;4988;49.238;6.698;2022-10-16T12:30:55;5.13;;;2.70;;
9898;SDS011;4988;49.238;6.698;2022-10-16T12:33:35;8.53;;;3.00;;
9898;SDS011;4988;49.238;6.698;2022-10-16T12:36:06;5.67;;;2.80;;
9898;SDS011;4988;49.238;6.698;2022-10-16T12:38:51;7.60;;;2.63;;
9898;SDS011;4988;49.238;6.698;2022-10-16T12:41:25;6.23;;;2.77;;
9898;SDS011;4988;49.238;6.698;2022-10-16T12:44:00;7.87;;;2.80;;
9898;SDS011;4988;49.238;6.698;2022-10-16T12:51:39;5.47;;;2.23;;
9898;SDS011;4988;49.238;6.698;2022-10-16T12:54:13;4.50;;;2.83;;
9898;SDS011;4988;49.238;6.698;2022-10-16T12:59:15;5.40;;;2.70;;
9898;SDS011;4988;49.238;6.698;2022-10-16T13:01:59;9.23;;;3.07;;
9898;SDS011;4988;49.238;6.698;2022-10-16T13:04:54;9.07;;;3.30;;
9898;SDS011;4988;49.238;6.698;2022-10-16T13:27:18;8.23;;;2.87;;
9898;SDS011;4988;49.238;6.698;2022-10-16T13:32:48;9.60;;;3.00;;
9898;SDS011;4988;49.238;6.698;2022-10-16T13:35:20;10.37;;;2.83;;
9898;SDS011;4988;49.238;6.698;2022-10-16T13:37:48;6.37;;;2.70;;
9898;SDS011;4988;49.238;6.698;2022-10-16T13:42:49;5.13;;;2.83;;
9898;SDS011;4988;49.238;6.698;2022-10-16T13:45:28;7.53;;;3.00;;
9898;SDS011;4988;49.238;6.698;2022-10-16T13:48:04;6.80;;;3.07;;
9898;SDS011;4988;49.238;6.698;2022-10-16T13:50:30;6.60;;;3.50;;
9898;SDS011;4988;49.238;6.698;2022-10-16T13:53:14;6.30;;;3.00;;
9898;SDS011;4988;49.238;6.698;2022-10-16T13:55:40;9.53;;;3.20;;
9898;SDS011;4988;49.238;6.698;2022-10-16T13:58:12;6.20;;;3.20;;
9898;SDS011;4988;49.238;6.698;2022-10-16T14:00:40;6.73;;;3.40;;
9898;SDS011;4988;49.238;6.698;2022-10-16T14:03:19;5.33;;;3.40;;
9898;SDS011;4988;49.238;6.698;2022-10-16T14:05:58;6.90;;;3.20;;
9898;SDS011;4988;49.238;6.698;2022-10-16T14:08:27;4.57;;;2.93;;
9898;SDS011;4988;49.238;6.698;2022-10-16T14:10:58;6.17;;;3.30;;
9898;SDS011;4988;49.238;6.698;2022-10-16T14:13:39;11.60;;;3.63;;
9898;SDS011;4988;49.238;6.698;2022-10-16T14:16:09;10.67;;;2.97;;
9898;SDS011;4988;49.238;6.698;2022-10-16T14:18:41;7.47;;;2.97;;
9898;SDS011;4988;49.238;6.698;2022-10-16T14:21:14;9.07;;;3.20;;
9898;SDS011;4988;49.238;6.698;2022-10-16T14:23:41;5.47;;;3.17;;
9898;SDS011;4988;49.238;6.698;2022-10-16T14:28:36;5.30;;;3.13;;
9898;SDS011;4988;49.238;6.698;2022-10-16T14:31:13;9.77;;;3.43;;
9898;SDS011;4988;49.238;6.698;2022-10-16T14:33:57;6.03;;;3.33;;
9898;SDS011;4988;49.238;6.698;2022-10-16T14:36:24;6.93;;;3.53;;
9898;SDS011;4988;49.238;6.698;2022-10-16T14:39:02;12.20;;;3.30;;
9898;SDS011;4988;49.238;6.698;2022-10-16T14:41:30;8.80;;;3.63;;
9898;SDS011;4988;49.238;6.698;2022-10-16T14:44:00;12.23;;;3.27;;
9898;SDS011;4988;49.238;6.698;2022-10-16T14:46:36;6.20;;;3.43;;
9898;SDS011;4988;49.238;6.698;2022-10-16T14:49:04;9.73;;;3.53;;
9898;SDS011;4988;49.238;6.698;2022-10-16T14:51:41;9.23;;;3.63;;
9898;SDS011;4988;49.238;6.698;2022-10-16T14:54:16;12.17;;;3.60;;
9898;SDS011;4988;49.238;6.698;2022-10-16T14:59:42;5.97;;;3.33;;
9898;SDS011;4988;49.238;6.698;2022-10-16T15:02:34;7.00;;;3.60;;
9898;SDS011;4988;49.238;6.698;2022-10-16T15:07:54;8.13;;;3.60;;
9898;SDS011;4988;49.238;6.698;2022-10-16T15:10:24;8.67;;;3.73;;
9898;SDS011;4988;49.238;6.698;2022-10-16T15:12:59;6.43;;;3.70;;
9898;SDS011;4988;49.238;6.698;2022-10-16T15:18:01;9.23;;;3.53;;
9898;SDS011;4988;49.238;6.698;2022-10-16T15:20:28;8.80;;;3.57;;
9898;SDS011;4988;49.238;6.698;2022-10-16T15:22:59;8.43;;;3.37;;
9898;SDS011;4988;49.238;6.698;2022-10-16T15:25:38;8.30;;;3.73;;
9898;SDS011;4988;49.238;6.698;2022-10-16T15:28:08;6.53;;;3.60;;
9898;SDS011;4988;49.238;6.698;2022-10-16T15:30:34;10.00;;;3.80;;
9898;SDS011;4988;49.238;6.698;2022-10-16T15:33:01;9.50;;;4.17;;
9898;SDS011;4988;49.238;6.698;2022-10-16T15:35:26;11.40;;;4.00;;
9898;SDS011;4988;49.238;6.698;2022-10-16T15:37:52;6.77;;;4.17;;
9898;SDS011;4988;49.238;6.698;2022-10-16T15:40:18;9.40;;;3.97;;
9898;SDS011;4988;49.238;6.698;2022-10-16T15:42:44;14.97;;;4.20;;
9898;SDS011;4988;49.238;6.698;2022-10-16T15:45:10;7.73;;;4.50;;
9898;SDS011;4988;49.238;6.698;2022-10-16T15:47:37;8.63;;;4.30;;
9898;SDS011;4988;49.238;6.698;2022-10-16T15:50:02;11.93;;;4.10;;
9898;SDS011;4988;49.238;6.698;2022-10-16T15:52:29;9.37;;;4.43;;
9898;SDS011;4988;49.238;6.698;2022-10-16T15:54:56;8.23;;;4.20;;
9898;SDS011;4988;49.238;6.698;2022-10-16T15:57:22;10.10;;;4.20;;
9898;SDS011;4988;49.238;6.698;2022-10-16T15:59:48;8.27;;;4.30;;
9898;SDS011;4988;49.238;6.698;2022-10-16T16:02:14;8.77;;;4.33;;
9898;SDS011;4988;49.238;6.698;2022-10-16T16:04:39;6.43;;;4.03;;
9898;SDS011;4988;49.238;6.698;2022-10-16T16:07:04;9.63;;;4.53;;
9898;SDS011;4988;49.238;6.698;2022-10-16T16:09:32;7.63;;;4.70;;
9898;SDS011;4988;49.238;6.698;2022-10-16T16:11:58;7.33;;;4.60;;
9898;SDS011;4988;49.238;6.698;2022-10-16T16:14:25;9.00;;;4.97;;
9898;SDS011;4988;49.238;6.698;2022-10-16T16:16:52;7.03;;;4.60;;
9898;SDS011;4988;49.238;6.698;2022-10-16T16:19:21;7.90;;;4.63;;
9898;SDS011;4988;49.238;6.698;2022-10-16T16:21:49;9.63;;;4.73;;
9898;SDS011;4988;49.238;6.698;2022-10-16T16:24:15;8.30;;;4.40;;
9898;SDS011;4988;49.238;6.698;2022-10-16T16:26:41;10.37;;;5.37;;
9898;SDS011;4988;49.238;6.698;2022-10-16T16:29:09;11.47;;;5.43;;
9898;SDS011;4988;49.238;6.698;2022-10-16T16:31:37;11.87;;;5.70;;
9898;SDS011;4988;49.238;6.698;2022-10-16T16:34:03;7.03;;;4.87;;
9898;SDS011;4988;49.238;6.698;2022-10-16T16:36:28;8.07;;;5.10;;
9898;SDS011;4988;49.238;6.698;2022-10-16T16:38:54;9.37;;;5.17;;
9898;SDS011;4988;49.238;6.698;2022-10-16T16:41:22;8.90;;;5.10;;
9898;SDS011;4988;49.238;6.698;2022-10-16T16:43:51;12.43;;;5.53;;
9898;SDS011;4988;49.238;6.698;2022-10-16T16:46:17;14.70;;;5.90;;
9898;SDS011;4988;49.238;6.698;2022-10-16T16:48:43;8.73;;;5.30;;
9898;SDS011;4988;49.238;6.698;2022-10-16T16:51:11;12.13;;;5.73;;
9898;SDS011;4988;49.238;6.698;2022-10-16T16:53:44;11.00;;;6.50;;
9898;SDS011;4988;49.238;6.698;2022-10-16T16:56:11;17.80;;;8.83;;
9898;SDS011;4988;49.238;6.698;2022-10-16T16:58:37;14.00;;;6.47;;
9898;SDS011;4988;49.238;6.698;2022-10-16T17:01:03;13.90;;;6.57;;
9898;SDS011;4988;49.238;6.698;2022-10-16T17:03:29;12.93;;;7.73;;
9898;SDS011;4988;49.238;6.698;2022-10-16T17:05:57;14.20;;;7.67;;
9898;SDS011;4988;49.238;6.698;2022-10-16T17:08:23;12.97;;;7.40;;
9898;SDS011;4988;49.238;6.698;2022-10-16T17:10:49;12.83;;;7.73;;
9898;SDS011;4988;49.238;6.698;2022-10-16T17:13:17;18.17;;;8.67;;
9898;SDS011;4988;49.238;6.698;2022-10-16T17:15:46;13.33;;;8.30;;
9898;SDS011;4988;49.238;6.698;2022-10-16T17:18:13;19.20;;;9.27;;
9898;SDS011;4988;49.238;6.698;2022-10-16T17:20:39;12.73;;;8.50;;